createdAt,value
2023-03-15T00:00:07.585Z,8.10
2023-03-15T00:02:55.762Z,8.17
2023-03-15T00:05:23.652Z,8.18
2023-03-15T00:07:51.822Z,8.23
2023-03-15T00:10:19.946Z,8.26
2023-03-15T00:12:48.344Z,8.34
2023-03-15T00:15:16.455Z,8.39
2023-03-15T00:17:45.147Z,8.42
2023-03-15T00:20:17.009Z,8.46
2023-03-15T00:22:45.262Z,8.51
2023-03-15T00:25:13.593Z,8.43
2023-03-15T00:27:41.768Z,8.10
2023-03-15T00:30:10.317Z,7.65
2023-03-15T00:32:38.429Z,7.19
2023-03-15T00:35:06.635Z,6.82
2023-03-15T00:37:37.670Z,6.53
2023-03-15T00:40:09.566Z,6.35
2023-03-15T00:42:39.795Z,6.16
2023-03-15T00:45:09.099Z,5.98
2023-03-15T00:47:37.057Z,5.74
2023-03-15T00:50:05.402Z,5.55
2023-03-15T00:52:36.897Z,5.38
2023-03-15T00:55:05.841Z,5.19
2023-03-15T00:57:35.345Z,4.97
2023-03-15T01:00:05.114Z,4.73
2023-03-15T01:02:33.832Z,4.50
2023-03-15T01:05:02.088Z,4.28
2023-03-15T01:07:33.685Z,4.12
2023-03-15T01:10:03.458Z,3.92
2023-03-15T01:12:33.105Z,3.81
2023-03-15T01:15:03.114Z,3.72
2023-03-15T01:17:31.423Z,3.60
2023-03-15T01:20:00.272Z,3.47
2023-03-15T01:22:28.291Z,3.36
2023-03-15T01:24:56.862Z,3.28
2023-03-15T01:27:24.938Z,3.17
2023-03-15T01:29:55.542Z,3.11
2023-03-15T01:32:23.601Z,2.99
2023-03-15T01:34:52.883Z,2.90
2023-03-15T01:37:24.705Z,2.81
2023-03-15T01:39:53.193Z,2.73
2023-03-15T01:42:21.522Z,2.70
2023-03-15T01:44:58.032Z,2.69
2023-03-15T01:47:26.184Z,2.68
2023-03-15T01:50:02.742Z,2.63
2023-03-15T01:52:36.056Z,2.61
2023-03-15T01:55:19.509Z,2.62
2023-03-15T01:58:14.326Z,2.59
2023-03-15T02:00:44.627Z,2.57
2023-03-15T02:03:38.878Z,2.56
2023-03-15T02:06:10.553Z,2.51
2023-03-15T02:09:09.694Z,2.51
2023-03-15T02:11:39.866Z,2.48
2023-03-15T02:14:12.819Z,2.45
2023-03-15T02:16:44.531Z,2.42
2023-03-15T02:19:36.953Z,2.38
2023-03-15T02:22:29.100Z,2.35
2023-03-15T02:25:17.061Z,2.31
2023-03-15T02:27:45.519Z,2.28
2023-03-15T02:30:16.011Z,2.25
2023-03-15T02:32:45.372Z,2.27
2023-03-15T02:35:26.773Z,2.27
2023-03-15T02:37:54.856Z,2.25
2023-03-15T02:40:25.350Z,2.24
2023-03-15T02:43:07.383Z,2.23
2023-03-15T02:45:36.923Z,2.24
2023-03-15T02:48:06.691Z,2.24
2023-03-15T02:50:34.808Z,2.22
2023-03-15T02:53:05.995Z,2.22
2023-03-15T02:55:34.259Z,2.21
2023-03-15T02:58:03.122Z,2.19
2023-03-15T03:00:32.332Z,2.19
2023-03-15T03:03:00.409Z,2.18
2023-03-15T03:05:53.925Z,2.19
2023-03-15T03:08:22.858Z,2.19
2023-03-15T03:10:51.647Z,2.22
2023-03-15T03:13:19.624Z,2.23
2023-03-15T03:15:50.249Z,2.25
2023-03-15T03:18:18.220Z,2.26
2023-03-15T03:20:47.420Z,2.28
2023-03-15T03:23:15.584Z,2.30
2023-03-15T03:25:45.798Z,2.29
2023-03-15T03:28:13.815Z,2.31
2023-03-15T03:30:41.989Z,2.29
2023-03-15T03:33:09.971Z,2.27
2023-03-15T03:35:38.287Z,2.27
2023-03-15T03:38:06.346Z,2.27
2023-03-15T03:40:39.795Z,2.23
2023-03-15T03:43:08.961Z,2.21
2023-03-15T03:45:37.077Z,2.21
2023-03-15T03:48:06.293Z,2.24
2023-03-15T03:50:35.431Z,2.20
2023-03-15T03:53:03.837Z,2.18
2023-03-15T03:55:34.454Z,2.19
2023-03-15T03:58:02.470Z,2.18
2023-03-15T04:05:11.308Z,2.16
2023-03-15T04:07:41.561Z,2.15
2023-03-15T04:10:14.875Z,2.13
2023-03-15T04:12:45.837Z,2.15
2023-03-15T04:15:15.403Z,2.15
2023-03-15T04:17:43.607Z,2.13
2023-03-15T04:20:13.050Z,2.11
2023-03-15T04:22:49.867Z,2.11
2023-03-15T04:25:44.025Z,2.11
2023-03-15T04:28:12.012Z,2.09
2023-03-15T04:34:52.256Z,2.06
2023-03-15T04:37:42.081Z,2.05
2023-03-15T04:40:23.528Z,2.02
2023-03-15T04:43:03.043Z,2.04
2023-03-15T04:45:46.991Z,2.02
2023-03-15T04:48:46.214Z,2.01
2023-03-15T04:51:30.909Z,2.02
2023-03-15T04:54:11.256Z,2.01
2023-03-15T04:56:58.117Z,2.01
2023-03-15T04:59:43.276Z,2.02
2023-03-15T05:02:51.414Z,2.02
2023-03-15T05:05:34.113Z,2.01
2023-03-15T05:08:35.660Z,2.00
2023-03-15T05:11:21.257Z,2.00
2023-03-15T05:13:51.180Z,1.97
2023-03-15T05:16:57.899Z,1.96
2023-03-15T05:19:49.253Z,1.91
2023-03-15T05:22:36.386Z,1.89
2023-03-15T05:25:14.907Z,1.90
2023-03-15T05:28:17.626Z,1.88
2023-03-15T05:30:47.554Z,1.87
2023-03-15T05:33:30.785Z,1.89
2023-03-15T05:36:16.867Z,1.88
2023-03-15T05:39:02.633Z,1.88
2023-03-15T05:41:48.105Z,1.87
2023-03-15T05:44:40.730Z,1.86
2023-03-15T05:47:24.717Z,1.84
2023-03-15T05:50:07.002Z,1.85
2023-03-15T05:52:51.899Z,1.84
2023-03-15T05:55:35.445Z,1.86
2023-03-15T05:58:07.809Z,1.86
2023-03-15T06:00:55.888Z,1.88
2023-03-15T06:03:34.088Z,1.91
2023-03-15T06:06:08.661Z,1.92
2023-03-15T06:08:38.587Z,1.90
2023-03-15T06:11:05.501Z,1.93
2023-03-15T06:13:33.090Z,1.95
2023-03-15T06:16:00.533Z,1.95
2023-03-15T06:18:27.760Z,1.96
2023-03-15T06:20:54.864Z,2.00
2023-03-15T06:23:21.624Z,2.02
2023-03-15T06:25:49.114Z,2.05
2023-03-15T06:28:16.111Z,2.07
2023-03-15T06:30:51.769Z,2.10
2023-03-15T06:33:19.445Z,2.12
2023-03-15T06:35:47.075Z,2.16
2023-03-15T06:38:14.512Z,2.23
2023-03-15T06:40:41.744Z,2.29
2023-03-15T06:43:08.576Z,2.34
2023-03-15T06:45:35.842Z,2.36
2023-03-15T06:48:04.092Z,2.34
2023-03-15T06:50:44.209Z,2.37
2023-03-15T06:53:13.593Z,2.38
2023-03-15T06:55:40.424Z,2.37
2023-03-15T06:58:07.252Z,2.38
2023-03-15T07:00:33.854Z,2.40
2023-03-15T07:03:02.383Z,2.44
2023-03-15T07:05:29.718Z,2.47
2023-03-15T07:07:56.689Z,2.47
2023-03-15T07:10:23.936Z,2.44
2023-03-15T07:12:52.048Z,2.38
2023-03-15T07:15:18.854Z,2.33
2023-03-15T07:17:45.407Z,2.30
2023-03-15T07:20:12.468Z,2.27
2023-03-15T07:22:39.420Z,2.25
2023-03-15T07:25:06.956Z,2.24
2023-03-15T07:27:33.679Z,2.21
2023-03-15T07:30:00.597Z,2.19
2023-03-15T07:32:27.598Z,2.18
2023-03-15T07:34:57.590Z,2.20
2023-03-15T07:37:24.480Z,2.25
2023-03-15T07:39:51.175Z,2.30
2023-03-15T07:42:17.914Z,2.37
2023-03-15T07:44:49.377Z,2.43
2023-03-15T07:47:16.417Z,2.51
2023-03-15T07:49:43.219Z,2.68
2023-03-15T07:52:10.201Z,2.83
2023-03-15T07:54:37.040Z,2.97
2023-03-15T07:57:04.612Z,3.17
2023-03-15T07:59:31.659Z,3.38
2023-03-15T08:02:00.221Z,3.57
2023-03-15T08:04:28.094Z,3.77
2023-03-15T08:06:54.743Z,3.93
2023-03-15T08:09:21.321Z,3.94
2023-03-15T08:11:48.195Z,3.90
2023-03-15T08:14:14.835Z,3.90
2023-03-15T08:16:41.465Z,3.99
2023-03-15T08:19:08.648Z,4.12
2023-03-15T08:21:35.374Z,4.28
2023-03-15T08:24:01.927Z,4.30
2023-03-15T08:26:28.471Z,4.30
2023-03-15T08:28:55.532Z,4.33
2023-03-15T08:31:23.096Z,4.22
2023-03-15T08:33:50.089Z,4.12
2023-03-15T08:36:16.813Z,4.12
2023-03-15T08:38:43.376Z,4.12
2023-03-15T08:41:10.247Z,4.22
2023-03-15T08:43:37.003Z,4.37
2023-03-15T08:46:03.902Z,4.41
2023-03-15T08:48:31.316Z,4.39
2023-03-15T08:51:03.921Z,4.29
2023-03-15T08:53:31.556Z,4.13
2023-03-15T08:55:58.655Z,4.14
2023-03-15T08:58:25.518Z,4.09
2023-03-15T09:00:53.009Z,3.99
2023-03-15T09:03:20.264Z,3.98
2023-03-15T09:05:47.006Z,4.03
2023-03-15T09:08:13.724Z,4.08
2023-03-15T09:10:40.240Z,4.06
2023-03-15T09:13:06.966Z,3.96
2023-03-15T09:15:33.511Z,3.92
2023-03-15T09:18:00.108Z,3.93
2023-03-15T09:20:27.997Z,4.01
2023-03-15T09:22:57.399Z,4.17
2023-03-15T09:25:25.783Z,4.39
2023-03-15T09:27:52.847Z,4.57
2023-03-15T09:30:19.736Z,4.83
2023-03-15T09:32:46.893Z,5.05
2023-03-15T09:35:16.308Z,5.18
2023-03-15T09:37:42.898Z,5.26
2023-03-15T09:40:26.930Z,5.40
2023-03-15T09:43:01.394Z,5.52
2023-03-15T09:45:40.796Z,5.72
2023-03-15T09:48:16.302Z,5.85
2023-03-15T09:50:50.252Z,6.05
2023-03-15T09:53:33.291Z,6.19
2023-03-15T09:55:59.915Z,6.46
2023-03-15T09:58:35.206Z,6.60
2023-03-15T10:01:13.942Z,6.60
2023-03-15T10:03:48.458Z,6.51
2023-03-15T10:06:19.402Z,6.37
2023-03-15T10:08:46.999Z,6.23
2023-03-15T10:11:22.614Z,6.22
2023-03-15T10:14:13.984Z,6.43
2023-03-15T10:16:43.616Z,6.54
2023-03-15T10:19:27.867Z,6.57
2023-03-15T10:22:03.522Z,6.69
2023-03-15T10:24:33.075Z,6.82
2023-03-15T10:27:13.628Z,6.84
2023-03-15T10:29:40.767Z,6.85
2023-03-15T10:32:17.633Z,6.75
2023-03-15T10:34:52.746Z,6.59
2023-03-15T10:37:23.127Z,6.45
2023-03-15T10:39:56.369Z,6.35
2023-03-15T10:42:33.224Z,6.17
2023-03-15T10:45:22.306Z,6.04
2023-03-15T10:47:59.680Z,5.95
2023-03-15T10:50:30.428Z,5.81
2023-03-15T10:53:02.879Z,5.80
2023-03-15T10:55:30.757Z,5.79
2023-03-15T10:57:59.506Z,5.77
2023-03-15T11:04:42.319Z,6.08
2023-03-15T11:07:13.565Z,6.17
2023-03-15T11:09:44.849Z,6.28
2023-03-15T11:12:21.575Z,6.29
2023-03-15T11:14:58.422Z,6.32
2023-03-15T11:17:30.677Z,6.45
2023-03-15T11:20:05.893Z,6.51
2023-03-15T11:22:33.842Z,6.45
2023-03-15T11:25:01.947Z,6.35
2023-03-15T11:27:31.839Z,6.27
2023-03-15T11:30:01.939Z,6.06
2023-03-15T11:32:32.029Z,5.99
2023-03-15T11:35:06.243Z,5.99
2023-03-15T11:38:14.493Z,6.11
2023-03-15T11:40:53.644Z,6.19
2023-03-15T11:44:02.159Z,6.19
2023-03-15T11:46:36.872Z,6.15
2023-03-15T11:49:27.052Z,5.96
2023-03-15T11:51:57.020Z,5.94
2023-03-15T11:54:28.583Z,6.10
2023-03-15T11:57:04.535Z,6.20
2023-03-15T11:59:40.249Z,6.27
2023-03-15T12:02:11.456Z,6.33
2023-03-15T12:04:44.513Z,6.45
2023-03-15T12:07:15.449Z,6.56
2023-03-15T12:09:49.961Z,6.64
2023-03-15T12:12:24.045Z,6.70
2023-03-15T12:15:05.407Z,6.62
2023-03-15T12:17:56.322Z,6.41
2023-03-15T12:20:40.885Z,6.22
2023-03-15T12:23:19.986Z,6.17
2023-03-15T12:25:55.427Z,6.11
2023-03-15T12:28:44.167Z,6.08
2023-03-15T12:31:14.483Z,6.00
2023-03-15T12:33:52.839Z,5.98
2023-03-15T12:36:40.075Z,5.98
2023-03-15T12:39:16.909Z,5.93
2023-03-15T12:41:47.411Z,5.93
2023-03-15T12:44:33.747Z,5.92
2023-03-15T12:47:04.016Z,5.99
2023-03-15T12:49:39.625Z,6.04
2023-03-15T12:52:34.391Z,6.14
2023-03-15T12:55:18.283Z,6.14
2023-03-15T12:57:53.983Z,6.13
2023-03-15T13:00:23.674Z,6.05
2023-03-15T13:03:19.872Z,5.94
2023-03-15T13:06:03.898Z,5.88
2023-03-15T13:08:44.384Z,5.85
2023-03-15T13:11:23.719Z,5.85
2023-03-15T13:14:00.494Z,5.83
2023-03-15T13:16:46.755Z,5.91
2023-03-15T13:19:19.951Z,5.99
2023-03-15T13:22:07.082Z,6.00
2023-03-15T13:25:06.133Z,5.99
2023-03-15T13:28:11.843Z,6.02
2023-03-15T13:30:47.250Z,5.95
2023-03-15T13:33:26.550Z,5.96
2023-03-15T13:36:01.289Z,5.99
2023-03-15T13:38:31.471Z,6.00
2023-03-15T13:41:05.298Z,6.02
2023-03-15T13:43:37.302Z,6.02
2023-03-15T13:46:09.244Z,5.94
2023-03-15T13:48:47.580Z,5.83
2023-03-15T13:51:28.514Z,5.75
2023-03-15T13:54:02.410Z,5.60
2023-03-15T13:56:46.979Z,5.58
2023-03-15T13:59:18.015Z,5.55
2023-03-15T14:01:46.578Z,5.57
2023-03-15T14:04:18.481Z,5.56
2023-03-15T14:06:47.837Z,5.50
2023-03-15T14:09:28.277Z,5.40
2023-03-15T14:12:05.818Z,5.28
2023-03-15T14:14:38.770Z,5.24
2023-03-15T14:17:18.183Z,5.23
2023-03-15T14:19:55.962Z,5.14
2023-03-15T14:22:24.927Z,5.06
2023-03-15T14:24:54.199Z,5.00
2023-03-15T14:27:27.011Z,4.95
2023-03-15T14:29:59.032Z,4.91
2023-03-15T14:32:31.677Z,4.85
2023-03-15T14:35:21.524Z,4.82
2023-03-15T14:38:04.343Z,4.80
2023-03-15T14:40:35.576Z,4.80
2023-03-15T14:43:06.740Z,4.83
2023-03-15T14:45:38.319Z,4.85
2023-03-15T14:48:12.117Z,4.88
2023-03-15T14:50:45.792Z,4.91
2023-03-15T14:53:19.086Z,4.99
2023-03-15T14:55:47.361Z,5.02
2023-03-15T14:58:21.306Z,5.00
2023-03-15T15:00:52.769Z,5.05
2023-03-15T15:03:34.460Z,5.01
2023-03-15T15:06:03.088Z,4.97
2023-03-15T15:08:32.743Z,4.95
2023-03-15T15:11:01.238Z,4.95
2023-03-15T15:13:31.734Z,4.91
2023-03-15T15:16:00.012Z,4.85
2023-03-15T15:18:30.373Z,4.76
2023-03-15T15:21:18.908Z,4.67
2023-03-15T15:23:58.065Z,4.58
2023-03-15T15:26:30.907Z,4.47
2023-03-15T15:28:59.792Z,4.38
2023-03-15T15:31:29.202Z,4.36
2023-03-15T15:33:57.583Z,4.34
2023-03-15T15:36:52.247Z,4.31
2023-03-15T15:39:29.745Z,4.26
2023-03-15T15:41:57.867Z,4.20
2023-03-15T15:44:27.329Z,4.16
2023-03-15T15:46:55.958Z,4.10
2023-03-15T15:49:24.087Z,4.02
2023-03-15T15:51:52.278Z,3.94
2023-03-15T15:54:26.161Z,3.89
2023-03-15T15:56:57.866Z,3.84
2023-03-15T15:59:26.308Z,3.78
2023-03-15T16:02:03.254Z,3.71
2023-03-15T16:04:32.678Z,3.66
2023-03-15T16:07:04.243Z,3.62
2023-03-15T16:09:36.207Z,3.57
2023-03-15T16:12:12.555Z,3.48
2023-03-15T16:14:41.773Z,3.45
2023-03-15T16:17:24.062Z,3.37
2023-03-15T16:19:52.686Z,3.30
2023-03-15T16:22:22.848Z,3.25
2023-03-15T16:24:55.200Z,3.17
2023-03-15T16:27:26.964Z,3.09
2023-03-15T16:29:55.889Z,3.03
2023-03-15T16:32:41.017Z,2.96
2023-03-15T16:35:15.751Z,2.89
2023-03-15T16:37:45.971Z,2.79
2023-03-15T16:40:35.312Z,2.72
2023-03-15T16:43:06.365Z,2.63
2023-03-15T16:45:34.453Z,2.57
2023-03-15T16:48:02.714Z,2.50
2023-03-15T16:50:32.585Z,2.43
2023-03-15T16:53:05.475Z,2.40
2023-03-15T16:55:34.006Z,2.34
2023-03-15T16:58:11.645Z,2.31
2023-03-15T17:00:39.719Z,2.28
2023-03-15T17:03:08.264Z,2.22
2023-03-15T17:05:36.780Z,2.16
2023-03-15T17:08:05.191Z,2.09
2023-03-15T17:10:33.264Z,2.02
2023-03-15T17:13:02.783Z,1.97
2023-03-15T17:15:31.258Z,1.91
2023-03-15T17:18:00.340Z,1.85
2023-03-15T17:20:29.882Z,1.78
2023-03-15T17:23:04.881Z,1.70
2023-03-15T17:25:34.324Z,1.64
2023-03-15T17:28:02.606Z,1.59
2023-03-15T17:30:36.345Z,1.52
2023-03-15T17:33:05.343Z,1.43
2023-03-15T17:35:39.918Z,1.33
2023-03-15T17:38:19.027Z,1.24
2023-03-15T17:40:47.488Z,1.16
2023-03-15T17:43:17.024Z,1.06
2023-03-15T17:45:45.860Z,0.97
2023-03-15T17:48:14.360Z,0.88
2023-03-15T17:50:44.265Z,0.79
2023-03-15T17:53:20.269Z,0.70
2023-03-15T17:55:49.143Z,0.64
2023-03-15T17:58:22.545Z,0.56
2023-03-15T18:00:52.720Z,0.48
2023-03-15T18:03:21.837Z,0.38
2023-03-15T18:05:50.695Z,0.27
2023-03-15T18:08:21.317Z,0.16
2023-03-15T18:10:52.177Z,0.06
2023-03-15T18:13:22.076Z,-0.04
2023-03-15T18:15:51.305Z,-0.12
2023-03-15T18:18:20.632Z,-0.21
2023-03-15T18:20:49.623Z,-0.28
2023-03-15T18:23:18.979Z,-0.44
2023-03-15T18:25:47.235Z,-0.63
2023-03-15T18:28:15.471Z,-0.72
2023-03-15T18:30:44.812Z,-0.78
2023-03-15T18:33:14.200Z,-0.82
2023-03-15T18:35:42.587Z,-0.89
2023-03-15T18:38:10.670Z,-0.95
2023-03-15T18:40:38.890Z,-1.01
2023-03-15T18:43:07.059Z,-1.04
2023-03-15T18:45:36.572Z,-1.07
2023-03-15T18:48:05.100Z,-1.11
2023-03-15T18:50:34.137Z,-1.15
2023-03-15T18:53:03.917Z,-1.17
2023-03-15T18:55:33.701Z,-1.22
2023-03-15T18:58:02.250Z,-1.24
2023-03-15T19:04:36.215Z,-1.27
2023-03-15T19:07:04.428Z,-1.32
2023-03-15T19:09:33.715Z,-1.41
2023-03-15T19:12:02.147Z,-1.49
2023-03-15T19:14:30.399Z,-1.54
2023-03-15T19:17:00.296Z,-1.58
2023-03-15T19:19:28.919Z,-1.59
2023-03-15T19:21:57.435Z,-1.61
2023-03-15T19:24:25.480Z,-1.61
2023-03-15T19:26:53.894Z,-1.62
2023-03-15T19:29:21.929Z,-1.66
2023-03-15T19:31:50.104Z,-1.73
2023-03-15T19:34:18.505Z,-1.72
2023-03-15T19:36:46.677Z,-1.51
2023-03-15T19:39:14.740Z,-1.42
2023-03-15T19:41:44.596Z,-1.41
2023-03-15T19:44:12.638Z,-1.43
2023-03-15T19:46:41.139Z,-1.47
2023-03-15T19:49:09.496Z,-1.53
2023-03-15T19:51:37.756Z,-1.58
2023-03-15T19:54:06.023Z,-1.60
2023-03-15T19:56:34.104Z,-1.61
2023-03-15T19:59:02.400Z,-1.65
2023-03-15T20:01:30.554Z,-1.67
2023-03-15T20:03:58.825Z,-1.71
2023-03-15T20:06:26.948Z,-1.74
2023-03-15T20:08:55.722Z,-1.78
2023-03-15T20:11:29.293Z,-1.82
2023-03-15T20:13:57.340Z,-1.86
2023-03-15T20:16:25.548Z,-1.90
2023-03-15T20:18:55.778Z,-1.97
2023-03-15T20:21:24.163Z,-2.07
2023-03-15T20:23:52.427Z,-2.16
2023-03-15T20:26:22.846Z,-2.27
2023-03-15T20:28:51.115Z,-2.35
2023-03-15T20:31:19.683Z,-2.41
2023-03-15T20:33:50.867Z,-2.45
2023-03-15T20:36:19.677Z,-2.49
2023-03-15T20:38:48.010Z,-2.53
2023-03-15T20:41:18.430Z,-2.54
2023-03-15T20:43:46.618Z,-2.56
2023-03-15T20:46:16.750Z,-2.59
2023-03-15T20:48:45.246Z,-2.57
2023-03-15T20:51:13.301Z,-2.53
2023-03-15T20:53:41.390Z,-2.45
2023-03-15T20:56:09.358Z,-2.35
2023-03-15T20:58:37.275Z,-2.24
2023-03-15T21:01:08.930Z,-2.16
2023-03-15T21:03:37.955Z,-2.07
2023-03-15T21:06:06.528Z,-1.98
2023-03-15T21:08:34.896Z,-1.87
2023-03-15T21:11:07.165Z,-1.80
2023-03-15T21:13:36.064Z,-1.70
2023-03-15T21:16:04.829Z,-1.62
2023-03-15T21:18:33.785Z,-1.53
2023-03-15T21:21:08.210Z,-1.44
2023-03-15T21:23:36.294Z,-1.36
2023-03-15T21:26:07.522Z,-1.28
2023-03-15T21:28:35.607Z,-1.19
2023-03-15T21:31:04.137Z,-1.14
2023-03-15T21:33:32.895Z,-1.07
2023-03-15T21:36:00.953Z,-1.00
2023-03-15T21:38:31.495Z,-0.94
2023-03-15T21:41:00.508Z,-0.89
2023-03-15T21:43:31.154Z,-0.83
2023-03-15T21:46:01.603Z,-0.77
2023-03-15T21:48:30.646Z,-0.73
2023-03-15T21:50:59.493Z,-0.69
2023-03-15T21:53:29.255Z,-0.65
2023-03-15T21:55:58.544Z,-0.59
2023-03-15T21:58:28.036Z,-0.56
2023-03-15T22:01:01.305Z,-0.54
2023-03-15T22:03:30.283Z,-0.51
2023-03-15T22:05:58.189Z,-0.50
2023-03-15T22:08:26.238Z,-0.49
2023-03-15T22:10:55.887Z,-0.49
2023-03-15T22:13:24.855Z,-0.49
2023-03-15T22:15:53.509Z,-0.49
2023-03-15T22:18:22.077Z,-0.51
2023-03-15T22:20:51.604Z,-0.53
2023-03-15T22:23:20.065Z,-0.56
2023-03-15T22:25:48.871Z,-0.59
2023-03-15T22:28:17.181Z,-0.64
2023-03-15T22:30:49.125Z,-0.68
2023-03-15T22:33:19.782Z,-0.68
2023-03-15T22:35:55.799Z,-0.70
2023-03-15T22:38:25.488Z,-0.73
2023-03-15T22:41:02.350Z,-0.77
2023-03-15T22:43:30.597Z,-0.82
2023-03-15T22:45:58.652Z,-0.83
2023-03-15T22:48:27.041Z,-0.86
2023-03-15T22:51:03.757Z,-0.89
2023-03-15T22:53:32.384Z,-0.92
2023-03-15T22:56:00.901Z,-0.95
2023-03-15T22:58:28.901Z,-0.96
2023-03-15T23:00:56.955Z,-1.02
2023-03-15T23:03:26.527Z,-1.06
2023-03-15T23:05:55.193Z,-1.08
2023-03-15T23:08:24.271Z,-1.10
2023-03-15T23:10:52.746Z,-1.12
2023-03-15T23:13:21.599Z,-1.14
2023-03-15T23:15:49.719Z,-1.17
2023-03-15T23:18:17.780Z,-1.20
2023-03-15T23:20:45.828Z,-1.25
2023-03-15T23:23:14.079Z,-1.28
2023-03-15T23:25:43.171Z,-1.33
2023-03-15T23:28:11.256Z,-1.37
2023-03-15T23:30:40.153Z,-1.40
2023-03-15T23:33:08.759Z,-1.44
2023-03-15T23:35:37.343Z,-1.49
2023-03-15T23:38:05.366Z,-1.53
2023-03-15T23:40:33.584Z,-1.57
2023-03-15T23:43:01.897Z,-1.61
2023-03-15T23:45:30.319Z,-1.65
2023-03-15T23:47:58.854Z,-1.71
2023-03-15T23:50:27.638Z,-1.77
2023-03-15T23:52:56.822Z,-1.83
2023-03-15T23:55:25.577Z,-1.88
2023-03-15T23:57:53.880Z,-1.92
